Time;durP1;ratioP1;P1;durP2;ratioP2;P2;SDS_P1;SDS_P2;PMS_P1;PMS_P2;Temp;Humidity;BMP_temperature;BMP_pressure;BME280_temperature;BME280_humidity;BME280_pressure;Samples;Min_cycle;Max_cycle;Signal;HPM_P1;HPM_P2
2023/08/30 00:00:21;;;;;;;16.98;13.50;;;;;;;16.30;71.24;99676.00;5069498;28;20055;-65
2023/08/30 00:02:47;;;;;;;18.48;14.80;;;;;;;16.25;71.60;99675.66;5069378;28;20043;-66
2023/08/30 00:05:13;;;;;;;18.10;13.93;;;;;;;16.20;71.49;99674.28;5069188;28;20043;-65
2023/08/30 00:07:40;;;;;;;16.45;14.00;;;;;;;16.18;71.92;99681.72;5067986;28;20111;-64
2023/08/30 00:10:07;;;;;;;19.52;13.82;;;;;;;16.16;71.77;99674.78;5068424;28;20131;-64
2023/08/30 00:12:34;;;;;;;20.08;13.90;;;;;;;16.14;71.89;99679.50;5068318;28;20040;-65
2023/08/30 00:14:59;;;;;;;20.20;14.38;;;;;;;15.91;71.96;99634.19;5068887;28;20032;-65
2023/08/30 00:17:25;;;;;;;18.35;14.27;;;;;;;16.12;71.74;99660.75;5068663;28;20029;-64
2023/08/30 00:19:52;;;;;;;16.50;12.90;;;;;;;16.16;71.45;99655.88;5068864;28;20028;-65
2023/08/30 00:22:18;;;;;;;16.98;13.40;;;;;;;16.24;71.56;99669.38;5055797;28;20116;-65
2023/08/30 00:24:45;;;;;;;16.95;12.18;;;;;;;16.22;71.18;99660.59;5055727;28;20071;-66
2023/08/30 00:27:10;;;;;;;18.30;13.13;;;;;;;16.25;71.18;99668.38;5055647;28;20048;-64
2023/08/30 00:29:36;;;;;;;16.00;13.23;;;;;;;16.28;71.30;99669.91;5055204;28;20041;-65
2023/08/30 00:32:01;;;;;;;17.38;12.02;;;;;;;16.29;71.28;99668.91;5055469;28;20029;-67
2023/08/30 00:34:27;;;;;;;14.32;12.18;;;;;;;16.30;70.96;99673.28;5054852;28;20048;-65
2023/08/30 00:36:53;;;;;;;16.00;11.98;;;;;;;16.27;70.58;99668.22;5055702;28;20060;-66
2023/08/30 00:39:18;;;;;;;16.67;12.90;;;;;;;16.25;70.38;99681.88;5053913;28;20119;-64
2023/08/30 00:41:44;;;;;;;15.98;12.95;;;;;;;16.25;70.46;99689.97;5055182;28;20939;-66
2023/08/30 00:44:09;;;;;;;16.58;12.55;;;;;;;16.17;70.41;99665.66;5055218;28;20029;-65
2023/08/30 00:46:35;;;;;;;13.13;11.55;;;;;;;16.30;70.20;99681.41;5055191;28;20409;-65
2023/08/30 00:49:01;;;;;;;14.93;12.65;;;;;;;16.28;70.11;99691.53;5054578;28;20121;-64
2023/08/30 00:51:27;;;;;;;15.23;11.88;;;;;;;16.25;70.08;99695.38;5054994;28;20104;-67
2023/08/30 00:53:55;;;;;;;15.07;12.50;;;;;;;16.23;69.99;99696.56;5054621;28;20060;-66
2023/08/30 00:56:21;;;;;;;12.57;11.27;;;;;;;16.26;69.76;99693.53;5055350;28;20104;-66
2023/08/30 00:58:50;;;;;;;13.68;11.68;;;;;;;16.26;69.87;99699.78;5054502;28;20032;-66
2023/08/30 01:01:18;;;;;;;13.13;11.57;;;;;;;16.28;69.60;99699.63;5054985;28;20036;-65
2023/08/30 01:03:44;;;;;;;12.73;11.40;;;;;;;16.16;69.73;99678.34;5054853;28;20452;-66
2023/08/30 01:06:09;;;;;;;11.73;10.38;;;;;;;16.28;69.71;99707.72;5055081;28;20056;-66
2023/08/30 01:08:38;;;;;;;12.98;11.32;;;;;;;16.24;69.50;99698.25;5054485;28;20151;-66
2023/08/30 01:11:24;;;;;;;12.38;11.07;;;;;;;16.25;69.78;99699.97;5054789;28;20057;-65
2023/08/30 01:14:09;;;;;;;;;;;;;;;16.52;69.24;99704.25;5055133;28;20041;-66
2023/08/30 01:16:38;;;;;;;14.40;10.55;;;;;;;16.30;69.40;99700.31;5054662;28;19970;-65
2023/08/30 01:19:36;;;;;;;12.30;10.32;;;;;;;16.31;69.70;99704.69;5053637;28;20090;-65
2023/08/30 01:22:13;;;;;;;12.63;11.18;;;;;;;16.21;69.74;99705.69;5054620;28;20115;-66
2023/08/30 01:25:04;;;;;;;13.18;11.25;;;;;;;16.20;69.91;99698.59;5054241;28;20108;-64
2023/08/30 01:27:34;;;;;;;12.20;10.90;;;;;;;16.13;69.78;99712.91;5054541;28;20122;-65
2023/08/30 01:30:02;;;;;;;12.18;10.98;;;;;;;16.10;69.77;99711.38;5053679;28;20033;-65
2023/08/30 01:32:31;;;;;;;12.55;11.25;;;;;;;16.12;69.80;99705.81;5053161;28;20460;-65
2023/08/30 01:34:58;;;;;;;12.95;11.63;;;;;;;15.93;69.87;99687.03;5054185;28;20025;-66
2023/08/30 01:37:25;;;;;;;13.60;10.73;;;;;;;16.11;69.88;99707.66;5054406;28;20047;-65
2023/08/30 01:39:52;;;;;;;12.35;11.15;;;;;;;16.10;69.78;99716.78;5053789;28;20048;-66
2023/08/30 01:42:22;;;;;;;12.98;11.65;;;;;;;16.11;69.77;99713.06;5053184;28;20044;-65
2023/08/30 01:44:50;;;;;;;13.23;11.77;;;;;;;15.90;69.70;99681.09;5054202;28;20029;-65
2023/08/30 01:47:17;;;;;;;13.43;11.30;;;;;;;16.13;69.95;99724.53;5054174;28;20159;-65
2023/08/30 01:49:44;;;;;;;13.15;11.45;;;;;;;16.12;69.91;99725.56;5053191;28;20029;-65
2023/08/30 01:52:10;;;;;;;13.95;12.43;;;;;;;16.06;69.92;99718.13;5054007;28;20104;-66
2023/08/30 01:54:38;;;;;;;13.82;11.88;;;;;;;16.12;69.87;99716.63;5054104;28;20033;-65
2023/08/30 01:57:04;;;;;;;14.02;11.82;;;;;;;16.08;69.96;99713.38;5053910;28;20036;-65
2023/08/30 01:59:30;;;;;;;13.38;11.98;;;;;;;16.09;70.03;99712.38;5052282;28;20025;-63
2023/08/30 02:01:56;;;;;;;13.23;11.35;;;;;;;16.13;69.96;99715.63;5053909;28;20036;-65
2023/08/30 02:04:22;;;;;;;14.05;12.35;;;;;;;16.11;69.91;99715.75;5053167;28;20043;-65
2023/08/30 02:07:14;;;;;;;13.40;12.00;;;;;;;16.23;70.01;99718.19;5053315;28;20390;-64
2023/08/30 02:09:50;;;;;;;14.10;12.02;;;;;;;16.15;69.94;99717.13;5052955;28;20471;-65
2023/08/30 02:12:17;;;;;;;12.73;11.43;;;;;;;16.14;69.72;99720.84;5053186;28;20040;-65
2023/08/30 02:14:47;;;;;;;12.82;11.25;;;;;;;16.15;69.77;99714.44;5053536;28;20375;-65
2023/08/30 02:17:14;;;;;;;12.93;11.63;;;;;;;16.12;70.11;99709.34;5052674;28;20068;-66
2023/08/30 02:19:42;;;;;;;15.93;11.68;;;;;;;16.13;69.98;99716.44;5053038;28;20037;-70
2023/08/30 02:22:07;;;;;;;13.68;11.88;;;;;;;16.12;69.93;99700.41;5053385;28;20048;-65
2023/08/30 02:24:33;;;;;;;17.52;11.68;;;;;;;16.08;69.77;99697.19;5052551;28;20043;-64
2023/08/30 02:26:58;;;;;;;13.23;10.73;;;;;;;16.09;69.69;99704.28;5053655;28;20428;-65
2023/08/30 02:29:24;;;;;;;12.52;10.52;;;;;;;16.14;69.56;99722.72;5052368;28;20031;-64
2023/08/30 02:31:49;;;;;;;11.40;10.02;;;;;;;16.13;69.66;99711.03;5053215;28;20367;-65
2023/08/30 02:34:15;;;;;;;12.07;10.63;;;;;;;16.10;69.52;99705.16;5052678;28;20052;-66
2023/08/30 02:36:40;;;;;;;14.32;10.15;;;;;;;16.18;69.40;99722.22;5052971;28;20470;-66
2023/08/30 02:39:06;;;;;;;10.85;9.70;;;;;;;16.16;69.34;99726.94;5052686;28;20095;-66
2023/08/30 02:41:31;;;;;;;11.10;9.93;;;;;;;16.16;69.14;99743.16;5053165;28;20041;-66
2023/08/30 02:43:57;;;;;;;10.40;9.30;;;;;;;16.12;69.20;99725.56;5053100;28;20075;-66
2023/08/30 02:46:22;;;;;;;11.88;10.10;;;;;;;16.16;68.88;99735.06;5052989;28;20068;-66
2023/08/30 02:48:48;;;;;;;10.90;9.80;;;;;;;16.22;69.10;99741.63;5052422;28;20021;-67
2023/08/30 02:51:13;;;;;;;10.63;9.52;;;;;;;16.19;69.01;99732.03;5053023;28;20112;-66
2023/08/30 02:53:39;;;;;;;10.13;9.05;;;;;;;16.19;68.95;99732.03;5051708;28;20041;-66
2023/08/30 02:56:04;;;;;;;10.45;9.35;;;;;;;16.06;68.67;99710.00;5053003;28;20104;-67
2023/08/30 02:58:29;;;;;;;10.45;9.25;;;;;;;16.18;68.81;99741.13;5052679;28;20416;-67
2023/08/30 03:00:55;;;;;;;11.35;8.93;;;;;;;16.14;68.78;99736.22;5051869;28;20036;-66
2023/08/30 03:03:20;;;;;;;10.73;9.57;;;;;;;16.11;68.89;99734.66;5052876;28;20522;-66
2023/08/30 03:05:46;;;;;;;11.52;8.27;;;;;;;16.06;68.58;99728.91;5052907;28;20045;-67
2023/08/30 03:08:11;;;;;;;9.55;8.55;;;;;;;16.10;68.74;99738.38;5052541;28;20455;-66
2023/08/30 03:10:37;;;;;;;10.00;8.18;;;;;;;16.10;68.50;99732.16;5052455;28;20136;-66
2023/08/30 03:13:03;;;;;;;9.07;8.18;;;;;;;16.06;68.43;99728.91;5053039;28;20045;-63
2023/08/30 03:15:33;;;;;;;8.93;8.02;;;;;;;16.10;68.22;99732.97;5052262;28;20067;-65
2023/08/30 03:18:00;;;;;;;9.55;7.50;;;;;;;16.03;67.96;99726.53;5052962;28;20037;-66
2023/08/30 03:20:25;;;;;;;9.25;8.25;;;;;;;16.06;68.03;99732.47;5051756;28;20033;-66
2023/08/30 03:22:51;;;;;;;8.82;7.93;;;;;;;16.06;68.01;99731.63;5052560;28;20061;-67
2023/08/30 03:25:16;;;;;;;10.00;8.02;;;;;;;16.13;67.74;99732.66;5052511;28;20400;-66
2023/08/30 03:27:44;;;;;;;10.07;7.93;;;;;;;16.21;67.42;99740.81;5052146;28;20108;-68
2023/08/30 03:30:10;;;;;;;9.52;8.30;;;;;;;16.21;67.20;99738.09;5052113;28;20040;-66
2023/08/30 03:32:36;;;;;;;9.18;7.20;;;;;;;16.17;66.43;99739.44;5052642;28;20021;-66
2023/08/30 03:35:03;;;;;;;9.55;7.68;;;;;;;16.27;66.21;99746.56;5052430;28;20029;-64
2023/08/30 03:37:29;;;;;;;7.32;6.43;;;;;;;16.30;65.54;99740.81;5052571;28;20048;-64
2023/08/30 03:39:55;;;;;;;6.55;5.45;;;;;;;16.29;65.06;99741.84;5052144;28;20092;-66
2023/08/30 03:42:20;;;;;;;6.57;5.97;;;;;;;16.26;65.18;99743.00;5052393;28;20355;-67
2023/08/30 03:44:46;;;;;;;6.47;4.93;;;;;;;16.31;65.08;99747.91;5052354;28;20025;-66
2023/08/30 03:47:11;;;;;;;6.60;5.70;;;;;;;16.37;64.64;99733.75;5052536;28;20032;-66
2023/08/30 03:49:37;;;;;;;7.15;6.00;;;;;;;16.35;64.44;99724.97;5052087;28;20116;-63
2023/08/30 03:52:02;;;;;;;8.25;6.97;;;;;;;16.46;63.93;99738.19;5052717;28;20443;-65
2023/08/30 03:54:28;;;;;;;7.68;6.88;;;;;;;16.39;64.45;99744.41;5052364;28;20037;-67
2023/08/30 03:56:53;;;;;;;7.40;6.53;;;;;;;16.31;64.31;99729.88;5054228;28;20029;-65
2023/08/30 03:59:19;;;;;;;6.45;5.85;;;;;;;16.42;63.76;99741.38;5055542;28;20427;-70
2023/08/30 04:01:45;;;;;;;6.07;5.35;;;;;;;16.46;63.54;99737.31;5038445;28;20375;-66
2023/08/30 04:04:10;;;;;;;7.55;5.20;;;;;;;16.55;63.58;99746.31;5055641;28;20104;-65
2023/08/30 04:06:36;;;;;;;8.27;6.28;;;;;;;16.72;62.95;99741.78;5055586;28;20025;-62
2023/08/30 04:09:01;;;;;;;7.47;5.38;;;;;;;16.73;62.93;99746.16;5055279;28;20452;-66
2023/08/30 04:11:27;;;;;;;6.47;5.13;;;;;;;16.79;62.73;99743.66;5055699;28;20041;-66
2023/08/30 04:13:52;;;;;;;7.32;5.22;;;;;;;16.91;62.43;99743.34;5055812;28;20025;-66
2023/08/30 04:16:18;;;;;;;7.00;6.30;;;;;;;17.03;61.79;99744.72;5055935;28;20043;-66
2023/08/30 04:18:44;;;;;;;8.35;5.75;;;;;;;17.18;61.55;99742.19;5055275;28;20033;-66
2023/08/30 04:21:09;;;;;;;6.65;6.00;;;;;;;17.63;60.40;99745.38;5055622;28;20086;-65
2023/08/30 04:23:35;;;;;;;8.25;6.28;;;;;;;17.91;59.52;99738.69;5055831;28;20032;-66
2023/08/30 04:26:00;;;;;;;6.72;5.97;;;;;;;17.92;59.09;99725.00;5055353;28;20029;-66
2023/08/30 04:28:27;;;;;;;7.18;6.47;;;;;;;17.99;58.78;99733.28;5053930;28;20029;-65
2023/08/30 04:30:56;;;;;;;10.25;7.38;;;;;;;18.04;58.66;99746.31;5055409;28;20352;-65
2023/08/30 04:33:22;;;;;;;8.52;6.80;;;;;;;17.98;58.55;99753.25;5055316;28;20032;-65
2023/08/30 04:35:52;;;;;;;9.68;7.18;;;;;;;17.81;58.94;99719.09;5055332;28;20131;-65
2023/08/30 04:38:17;;;;;;;10.63;7.85;;;;;;;17.90;59.16;99737.88;5055471;28;20099;-66
2023/08/30 04:40:43;;;;;;;9.18;7.32;;;;;;;18.03;59.02;99755.44;5054803;28;20134;-65
2023/08/30 04:43:08;;;;;;;7.63;6.82;;;;;;;18.05;58.83;99737.16;5055393;28;20025;-64
2023/08/30 04:45:35;;;;;;;9.55;6.82;;;;;;;18.06;58.57;99749.69;5055395;28;20036;-66
2023/08/30 04:48:00;;;;;;;8.82;7.35;;;;;;;18.06;58.97;99757.81;5054951;28;20040;-67
2023/08/30 04:50:26;;;;;;;6.45;5.72;;;;;;;18.07;58.74;99754.06;5054937;28;20367;-66
2023/08/30 04:52:51;;;;;;;8.20;6.10;;;;;;;18.09;58.76;99749.34;5055162;28;20435;-66
2023/08/30 04:55:17;;;;;;;10.18;5.35;;;;;;;18.03;58.23;99752.75;5055000;28;20163;-66
2023/08/30 04:57:44;;;;;;;5.50;4.80;;;;;;;17.95;58.46;99761.69;5054283;28;20033;-65
2023/08/30 05:00:12;;;;;;;6.45;4.72;;;;;;;17.97;58.42;99764.25;5054949;28;20464;-66
2023/08/30 05:02:37;;;;;;;6.15;4.70;;;;;;;18.13;57.71;99756.09;5055042;28;20025;-66
2023/08/30 05:05:03;;;;;;;5.53;4.20;;;;;;;18.38;56.88;99766.00;5054577;28;20039;-67
2023/08/30 05:07:31;;;;;;;4.63;3.58;;;;;;;18.61;56.00;99747.06;5054597;28;20025;-64
2023/08/30 05:09:57;;;;;;;4.65;4.20;;;;;;;19.04;55.18;99752.91;5054085;28;20540;-67
2023/08/30 05:12:22;;;;;;;5.22;3.90;;;;;;;19.39;54.54;99748.91;5054618;28;20367;-65
2023/08/30 05:14:48;;;;;;;4.30;3.90;;;;;;;20.55;51.04;99736.75;5054430;28;20582;-65
2023/08/30 05:17:13;;;;;;;5.35;4.50;;;;;;;21.27;48.64;99740.44;5053518;28;20029;-65
2023/08/30 05:19:39;;;;;;;5.40;4.38;;;;;;;21.60;48.01;99749.91;5054175;28;20090;-66
2023/08/30 05:22:04;;;;;;;7.38;3.80;;;;;;;21.75;47.50;99753.38;5054304;28;20370;-65
2023/08/30 05:24:30;;;;;;;5.93;3.85;;;;;;;21.83;47.64;99749.66;5054021;28;20104;-66
2023/08/30 05:26:55;;;;;;;5.95;4.35;;;;;;;21.56;47.37;99707.75;5054571;28;20040;-67
2023/08/30 05:29:21;;;;;;;4.70;4.28;;;;;;;21.57;47.33;99718.44;5053881;28;20110;-66
2023/08/30 05:31:46;;;;;;;6.25;4.32;;;;;;;21.33;47.90;99720.59;5054393;28;20444;-65
2023/08/30 05:34:12;;;;;;;5.18;4.68;;;;;;;21.43;47.82;99735.72;5053542;28;20115;-66
2023/08/30 05:36:37;;;;;;;5.65;4.20;;;;;;;21.50;47.78;99732.00;5054500;28;20033;-64
2023/08/30 05:39:03;;;;;;;6.78;4.97;;;;;;;21.44;47.46;99721.06;5052938;28;20041;-66
2023/08/30 05:41:30;;;;;;;6.60;4.45;;;;;;;21.47;47.86;99739.75;5053225;28;20095;-66
2023/08/30 05:43:55;;;;;;;6.55;4.45;;;;;;;21.47;47.55;99728.88;5053115;28;20040;-66
2023/08/30 05:46:21;;;;;;;5.78;4.60;;;;;;;21.45;47.57;99723.59;5052856;28;20025;-67
2023/08/30 05:48:47;;;;;;;5.30;4.43;;;;;;;21.48;47.18;99725.09;5053403;28;20043;-67
2023/08/30 05:51:12;;;;;;;4.90;4.13;;;;;;;21.41;47.34;99740.53;5053674;28;20075;-66
2023/08/30 05:53:38;;;;;;;5.50;3.83;;;;;;;21.36;48.14;99755.59;5054052;28;20062;-67
2023/08/30 05:56:04;;;;;;;7.05;4.72;;;;;;;21.20;48.03;99755.84;5053781;28;20086;-67
2023/08/30 05:58:29;;;;;;;4.50;4.10;;;;;;;21.07;48.57;99754.69;5053497;28;20025;-66
2023/08/30 06:00:56;;;;;;;4.47;4.00;;;;;;;20.84;49.06;99773.91;5053435;28;20159;-66
2023/08/30 06:03:22;;;;;;;6.43;4.32;;;;;;;20.48;49.81;99753.81;5053211;28;20112;-65
2023/08/30 06:05:48;;;;;;;5.22;3.90;;;;;;;20.07;50.85;99757.06;5053662;28;20112;-67
2023/08/30 06:08:14;;;;;;;6.93;4.38;;;;;;;19.93;51.57;99766.91;5052875;28;20333;-64
2023/08/30 06:10:40;;;;;;;7.63;3.70;;;;;;;20.02;51.31;99773.09;5053480;28;20060;-66
2023/08/30 06:13:06;;;;;;;6.50;4.53;;;;;;;19.90;51.14;99751.78;5053094;28;20040;-66
2023/08/30 06:15:31;;;;;;;5.72;3.95;;;;;;;20.03;51.47;99772.91;5053085;28;20397;-66
2023/08/30 06:17:58;;;;;;;4.95;4.15;;;;;;;20.10;51.23;99778.44;5052812;28;20036;-64
2023/08/30 06:20:24;;;;;;;6.60;4.15;;;;;;;20.11;50.84;99769.25;5051904;28;20036;-65
2023/08/30 06:22:49;;;;;;;9.27;4.13;;;;;;;20.08;50.95;99767.72;5053123;28;20364;-66
2023/08/30 06:25:15;;;;;;;4.95;4.00;;;;;;;20.16;50.82;99774.94;5053387;28;20360;-66
2023/08/30 06:27:58;;;;;;;6.90;3.78;;;;;;;20.43;50.75;99772.59;5053196;28;20040;-63
2023/08/30 06:30:29;;;;;;;5.07;4.30;;;;;;;20.35;50.61;99759.09;5033001;28;20033;-64
2023/08/30 06:32:55;;;;;;;4.30;3.80;;;;;;;20.37;50.35;99763.28;5033194;28;20407;-64
2023/08/30 06:35:21;;;;;;;4.53;4.13;;;;;;;20.27;50.08;99765.47;5033316;28;20033;-63
2023/08/30 06:37:46;;;;;;;4.45;4.00;;;;;;;20.08;50.83;99745.16;5037734;28;20021;-64
2023/08/30 06:40:12;;;;;;;9.68;4.38;;;;;;;20.23;50.88;99773.16;5052898;28;20116;-64
2023/08/30 06:42:38;;;;;;;6.03;3.83;;;;;;;20.16;51.11;99764.09;5051365;28;20017;-66
2023/08/30 06:45:04;;;;;;;4.88;3.40;;;;;;;20.19;50.17;99766.41;5052072;28;20033;-64
2023/08/30 06:47:30;;;;;;;5.22;3.60;;;;;;;20.36;49.58;99772.50;5049907;28;20024;-63
2023/08/30 06:49:56;;;;;;;6.47;3.30;;;;;;;20.53;48.98;99769.56;5052497;28;20426;-64
2023/08/30 06:52:22;;;;;;;5.05;4.60;;;;;;;21.00;48.61;99761.97;5051963;28;20511;-64
2023/08/30 06:54:47;;;;;;;7.80;3.80;;;;;;;21.41;46.89;99755.00;5052255;28;20083;-63
2023/08/30 06:57:13;;;;;;;5.95;2.95;;;;;;;21.59;46.24;99743.59;5052627;28;20021;-64
2023/08/30 06:59:38;;;;;;;4.35;3.35;;;;;;;21.94;45.78;99767.34;5051713;28;20039;-64
2023/08/30 07:02:04;;;;;;;5.72;3.40;;;;;;;22.03;45.64;99768.03;5052656;28;20068;-63
2023/08/30 07:04:29;;;;;;;6.75;3.08;;;;;;;21.94;45.54;99751.00;5052319;28;20456;-63
2023/08/30 07:06:55;;;;;;;3.88;3.47;;;;;;;21.87;45.84;99759.13;5052289;28;20044;-64
2023/08/30 07:09:22;;;;;;;6.80;3.50;;;;;;;21.91;45.85;99763.13;5051651;28;20543;-64
2023/08/30 07:11:47;;;;;;;7.32;3.85;;;;;;;22.24;45.19;99761.63;5052842;28;20033;-64
2023/08/30 07:14:14;;;;;;;3.83;3.50;;;;;;;22.82;44.36;99763.16;5052905;28;20045;-65
2023/08/30 07:16:40;;;;;;;8.52;3.85;;;;;;;23.06;43.11;99774.53;5051238;28;20083;-64
2023/08/30 07:19:06;;;;;;;6.32;3.63;;;;;;;23.06;42.91;99766.34;5052641;28;20079;-65
2023/08/30 07:21:32;;;;;;;3.50;3.10;;;;;;;22.88;43.06;99767.78;5052466;28;20029;-63
2023/08/30 07:23:58;;;;;;;4.90;2.97;;;;;;;23.12;43.10;99775.59;5052174;28;20035;-64
2023/08/30 07:26:24;;;;;;;6.53;3.15;;;;;;;24.18;40.40;99773.91;5052467;28;20477;-66
2023/08/30 07:28:49;;;;;;;6.00;2.92;;;;;;;25.37;37.99;99769.91;5051632;28;20021;-63
2023/08/30 07:31:18;;;;;;;4.03;3.40;;;;;;;27.12;35.04;99775.34;5053224;28;20047;-64
2023/08/30 07:33:44;;;;;;;3.97;3.28;;;;;;;27.20;34.60;99774.19;5056449;28;20069;-64
2023/08/30 07:36:11;;;;;;;8.98;4.10;;;;;;;26.97;34.89;99772.22;5055805;28;20095;-65
2023/08/30 07:38:36;;;;;;;5.80;3.70;;;;;;;27.16;34.67;99771.09;5055687;28;20045;-65
2023/08/30 07:41:02;;;;;;;5.80;4.10;;;;;;;26.83;34.78;99777.03;5056221;28;20117;-63
2023/08/30 07:43:28;;;;;;;5.18;4.30;;;;;;;26.83;34.71;99761.38;5056183;28;20447;-65
2023/08/30 07:45:53;;;;;;;7.43;3.92;;;;;;;27.24;34.29;99767.13;5055700;28;20560;-65
2023/08/30 07:48:19;;;;;;;7.80;3.80;;;;;;;27.17;34.32;99771.91;5052443;28;20081;-65
2023/08/30 07:50:44;;;;;;;4.68;3.83;;;;;;;26.92;35.21;99776.53;5047485;28;20025;-67
2023/08/30 07:53:10;;;;;;;7.25;4.35;;;;;;;26.58;35.31;99769.78;5054509;28;20029;-72
2023/08/30 07:55:36;;;;;;;8.18;4.40;;;;;;;27.89;33.07;99767.38;5055148;28;20025;-71
2023/08/30 07:58:02;;;;;;;6.53;3.25;;;;;;;30.39;29.28;99767.94;5054984;28;20102;-72
2023/08/30 08:00:29;;;;;;;5.45;3.60;;;;;;;30.46;28.45;99768.56;5053843;28;20037;-73
2023/08/30 08:02:54;;;;;;;9.23;3.60;;;;;;;29.53;30.24;99762.56;5055413;28;20424;-71
2023/08/30 08:05:20;;;;;;;6.72;3.45;;;;;;;28.68;31.48;99774.25;5055236;28;20071;-69
2023/08/30 08:07:45;;;;;;;7.55;3.33;;;;;;;28.01;32.49;99772.84;5034330;28;20360;-69
2023/08/30 08:10:11;;;;;;;6.75;4.15;;;;;;;27.72;32.57;99778.22;5033852;28;20087;-71
2023/08/30 08:12:37;;;;;;;9.07;3.95;;;;;;;27.18;33.73;99751.59;5034304;28;20048;-71
2023/08/30 08:15:03;;;;;;;5.90;3.92;;;;;;;26.82;33.79;99769.88;5035351;28;20460;-70
2023/08/30 08:17:31;;;;;;;6.25;3.72;;;;;;;26.81;34.50;99782.75;5054630;28;20474;-70
2023/08/30 08:19:57;;;;;;;5.78;3.60;;;;;;;26.89;34.14;99781.63;5053526;28;20032;-70
2023/08/30 08:22:22;;;;;;;5.95;4.28;;;;;;;26.32;35.05;99780.84;5055209;28;20056;-70
2023/08/30 08:24:49;;;;;;;9.00;4.30;;;;;;;25.34;36.58;99762.13;5055766;28;20428;-70
2023/08/30 08:27:14;;;;;;;7.55;4.30;;;;;;;24.90;38.16;99791.31;5055131;28;20040;-71
2023/08/30 08:29:40;;;;;;;8.80;4.28;;;;;;;24.64;38.84;99801.31;5037175;28;20033;-71
2023/08/30 08:32:05;;;;;;;6.20;4.13;;;;;;;24.32;38.89;99799.31;5053801;28;20075;-70
2023/08/30 08:34:31;;;;;;;4.70;4.18;;;;;;;24.26;39.42;99800.19;5053550;28;20344;-71
2023/08/30 08:36:56;;;;;;;5.95;4.30;;;;;;;24.24;38.68;99769.47;5053812;28;20041;-69
2023/08/30 08:39:22;;;;;;;5.70;3.97;;;;;;;24.36;38.54;99777.84;5053432;28;20064;-67
2023/08/30 08:41:51;;;;;;;11.63;7.07;;;;;;;24.65;38.48;99802.97;5053774;28;20033;-66
2023/08/30 08:44:18;;;;;;;5.53;4.65;;;;;;;24.67;38.10;99809.09;5054787;28;20025;-67
2023/08/30 08:46:44;;;;;;;13.35;4.70;;;;;;;24.58;38.51;99804.88;5052855;28;20033;-67
2023/08/30 08:49:16;;;;;;;7.13;3.90;;;;;;;24.51;38.87;99803.03;5053735;28;20028;-67
2023/08/30 08:51:44;;;;;;;6.63;4.22;;;;;;;24.51;39.08;99810.41;5054225;28;20029;-64
2023/08/30 08:54:11;;;;;;;6.18;4.72;;;;;;;24.74;38.99;99806.31;5054107;28;20029;-64
2023/08/30 08:56:37;;;;;;;5.63;4.20;;;;;;;25.04;38.67;99809.31;5054489;28;20082;-66
2023/08/30 08:59:05;;;;;;;12.48;4.55;;;;;;;25.08;38.14;99816.06;5054744;28;20067;-66
2023/08/30 09:01:33;;;;;;;7.00;4.10;;;;;;;24.84;37.86;99812.19;5053421;28;20334;-66
2023/08/30 09:03:59;;;;;;;9.10;4.00;;;;;;;24.55;38.94;99829.97;5053345;28;20044;-66
2023/08/30 09:06:25;;;;;;;5.53;4.25;;;;;;;24.25;39.89;99823.13;5054001;28;20421;-67
2023/08/30 09:08:51;;;;;;;9.80;4.90;;;;;;;23.97;39.90;99820.63;5054007;28;20113;-65
2023/08/30 09:11:17;;;;;;;6.70;4.32;;;;;;;23.86;40.58;99817.44;5052884;28;20140;-65
2023/08/30 09:13:44;;;;;;;6.88;6.15;;;;;;;23.95;40.11;99826.28;5052068;28;20131;-65
2023/08/30 09:16:16;;;;;;;7.15;5.03;;;;;;;24.12;39.59;99832.19;5053016;28;20037;-65
2023/08/30 09:18:42;;;;;;;10.40;5.20;;;;;;;24.07;39.60;99829.25;5053201;28;20067;-65
2023/08/30 09:21:08;;;;;;;9.23;5.07;;;;;;;23.64;41.12;99820.44;5052250;28;20060;-67
2023/08/30 09:23:34;;;;;;;6.57;5.25;;;;;;;23.38;41.45;99826.72;5053347;28;20029;-64
2023/08/30 09:26:00;;;;;;;8.55;6.40;;;;;;;23.35;41.46;99821.66;5053275;28;20029;-65
2023/08/30 09:28:26;;;;;;;8.95;5.30;;;;;;;23.46;41.12;99826.50;5034859;28;20116;-67
2023/08/30 09:30:52;;;;;;;9.18;4.97;;;;;;;23.47;41.48;99830.09;5052397;28;20383;-65
2023/08/30 09:33:34;;;;;;;6.82;4.55;;;;;;;23.37;41.45;99836.78;5053670;28;20467;-64
2023/08/30 09:36:00;;;;;;;6.65;5.00;;;;;;;23.29;41.95;99827.97;5051717;28;20025;-64
2023/08/30 09:38:26;;;;;;;8.90;5.38;;;;;;;23.27;41.59;99824.56;5052454;28;20100;-64
2023/08/30 09:41:03;;;;;;;10.35;4.75;;;;;;;23.69;41.13;99843.56;5051785;28;20431;-66
2023/08/30 09:43:28;;;;;;;6.38;4.72;;;;;;;23.55;40.70;99827.13;5049718;28;20041;-65
2023/08/30 09:45:54;;;;;;;8.10;4.50;;;;;;;23.40;41.28;99832.81;5052833;28;20038;-63
2023/08/30 09:48:27;;;;;;;6.43;4.50;;;;;;;22.80;41.88;99804.28;5053130;28;20050;-70
2023/08/30 09:50:56;;;;;;;9.13;4.32;;;;;;;22.57;42.60;99852.88;5049427;28;20041;-66
2023/08/30 09:53:26;;;;;;;5.68;4.30;;;;;;;22.36;43.11;99858.22;5052066;28;20029;-65
2023/08/30 09:55:53;;;;;;;5.80;4.40;;;;;;;22.27;43.34;99853.13;5051990;28;20039;-66
2023/08/30 09:58:21;;;;;;;5.60;4.80;;;;;;;22.50;43.37;99848.25;5053145;28;20035;-66
2023/08/30 10:00:48;;;;;;;7.88;4.70;;;;;;;22.69;42.89;99850.44;5052856;28;20028;-67
2023/08/30 10:03:16;;;;;;;7.32;4.72;;;;;;;22.83;42.83;99851.31;5051456;28;20029;-69
2023/08/30 10:05:43;;;;;;;7.40;5.15;;;;;;;22.98;42.67;99854.75;5051386;28;20144;-68
2023/08/30 10:08:11;;;;;;;9.43;5.20;;;;;;;23.11;41.97;99870.34;5049911;28;20033;-66
2023/08/30 10:10:37;;;;;;;10.68;5.35;;;;;;;23.28;42.13;99862.63;5052227;28;20099;-66
2023/08/30 10:13:05;;;;;;;5.40;4.43;;;;;;;23.48;42.17;99856.34;5051390;28;20387;-67
2023/08/30 10:15:34;;;;;;;6.93;5.13;;;;;;;23.63;41.74;99859.75;5052322;28;20033;-66
2023/08/30 10:18:02;;;;;;;7.55;4.93;;;;;;;23.60;41.58;99851.13;5051215;28;20052;-67
2023/08/30 10:20:28;;;;;;;6.20;5.10;;;;;;;23.68;41.68;99841.88;5048740;28;20111;-67
2023/08/30 10:22:57;;;;;;;12.20;5.32;;;;;;;23.67;40.92;99851.13;5052377;28;20121;-65
2023/08/30 10:25:26;;;;;;;7.10;4.75;;;;;;;23.52;41.04;99860.34;5051104;28;20059;-64
2023/08/30 10:27:53;;;;;;;6.75;5.13;;;;;;;23.35;41.01;99849.81;5048806;28;20047;-63
2023/08/30 10:30:21;;;;;;;7.32;4.50;;;;;;;23.31;41.28;99845.81;5052009;28;20116;-64
2023/08/30 10:32:46;;;;;;;7.18;4.85;;;;;;;23.35;42.04;99844.34;5050717;28;20386;-64
2023/08/30 10:35:13;;;;;;;8.75;5.07;;;;;;;23.21;41.98;99848.91;5051074;28;20029;-63
2023/08/30 10:37:39;;;;;;;7.93;4.68;;;;;;;23.03;42.38;99841.31;5033800;28;20431;-65
2023/08/30 10:40:06;;;;;;;6.07;4.40;;;;;;;22.86;42.96;99851.75;5050016;28;20036;-64
2023/08/30 10:42:32;;;;;;;6.43;4.78;;;;;;;22.74;42.62;99851.50;5034185;28;20024;-66
2023/08/30 10:45:00;;;;;;;8.30;5.00;;;;;;;22.65;43.02;99852.72;5052061;28;20039;-64
2023/08/30 10:47:31;;;;;;;7.28;4.45;;;;;;;22.60;43.23;99847.88;5052401;28;20054;-67
2023/08/30 10:49:59;;;;;;;6.53;4.57;;;;;;;22.48;43.71;99839.44;5050003;28;20032;-65
2023/08/30 10:52:26;;;;;;;7.68;4.93;;;;;;;22.39;43.60;99848.78;5051539;28;20029;-66
2023/08/30 10:54:52;;;;;;;11.95;4.75;;;;;;;22.25;44.43;99852.47;5051026;28;20408;-66
2023/08/30 10:57:25;;;;;;;9.77;4.85;;;;;;;22.21;44.46;99844.69;5051353;28;20033;-64
2023/08/30 11:00:13;;;;;;;7.78;4.30;;;;;;;22.27;44.46;99845.75;5051752;28;20037;-65
2023/08/30 11:02:44;;;;;;;6.80;4.35;;;;;;;22.08;44.71;99850.91;5052242;28;20112;-65
2023/08/30 11:05:09;;;;;;;6.57;4.47;;;;;;;21.74;45.54;99806.19;5050784;28;20063;-63
2023/08/30 11:07:35;;;;;;;4.95;4.15;;;;;;;22.01;44.98;99816.47;5051578;28;20029;-63
2023/08/30 11:10:06;;;;;;;9.93;4.60;;;;;;;22.10;44.35;99812.53;5049450;28;20049;-68
2023/08/30 11:12:32;;;;;;;5.80;4.50;;;;;;;22.34;44.18;99845.81;5034218;28;20139;-67
2023/08/30 11:14:57;;;;;;;9.85;4.50;;;;;;;22.39;44.20;99843.31;5033786;28;20055;-65
2023/08/30 11:17:23;;;;;;;11.18;4.38;;;;;;;22.48;43.77;99827.66;5051642;28;20028;-64
2023/08/30 11:19:58;;;;;;;8.00;3.95;;;;;;;22.71;43.25;99843.72;5050866;28;20104;-65
2023/08/30 11:22:24;;;;;;;6.10;4.28;;;;;;;22.79;42.71;99840.81;5050543;28;20029;-63
2023/08/30 11:24:50;;;;;;;6.25;3.50;;;;;;;22.83;42.28;99824.03;5050602;28;20095;-64
2023/08/30 11:27:18;;;;;;;4.45;3.50;;;;;;;22.90;43.00;99836.66;5051677;28;20033;-64